createdAt,value
2017-09-26T00:01:57.410Z,101586.30
2017-09-26T00:04:25.039Z,101590.33
2017-09-26T00:06:52.635Z,101592.64
2017-09-26T00:09:20.259Z,101588.83
2017-09-26T00:11:48.032Z,101587.17
2017-09-26T00:14:15.671Z,101588.20
2017-09-26T00:16:43.294Z,101588.96
2017-09-26T00:19:10.894Z,101587.09
2017-09-26T00:21:38.528Z,101587.90
2017-09-26T00:24:06.181Z,101586.84
2017-09-26T00:26:33.814Z,101584.40
2017-09-26T00:29:01.400Z,101590.87
2017-09-26T00:31:29.053Z,101588.72
2017-09-26T00:33:56.771Z,101591.67
2017-09-26T00:36:24.423Z,101588.42
2017-09-26T00:38:52.534Z,101583.05
2017-09-26T00:41:20.177Z,101583.16
2017-09-26T00:43:47.744Z,101581.14
2017-09-26T00:46:15.353Z,101577.25
2017-09-26T00:48:42.963Z,101579.95
2017-09-26T00:51:10.606Z,101579.67
2017-09-26T00:53:38.288Z,101576.86
2017-09-26T00:56:05.951Z,101575.13
2017-09-26T00:58:33.547Z,101574.44
2017-09-26T01:01:01.206Z,101572.56
2017-09-26T01:03:30.752Z,101570.53
2017-09-26T01:06:03.889Z,101565.80
2017-09-26T01:08:31.484Z,101572.13
2017-09-26T01:10:59.104Z,101571.73
2017-09-26T01:13:26.696Z,101569.75
2017-09-26T01:15:54.318Z,101569.36
2017-09-26T01:18:21.917Z,101565.85
2017-09-26T01:20:49.510Z,101568.81
2017-09-26T01:23:17.111Z,101568.13
2017-09-26T01:25:44.739Z,101559.36
2017-09-26T01:28:12.344Z,101564.06
2017-09-26T01:30:39.987Z,101561.63
2017-09-26T01:33:07.575Z,101568.09
2017-09-26T01:35:35.182Z,101563.66
2017-09-26T01:38:04.051Z,101563.39
2017-09-26T01:40:43.277Z,101565.55
2017-09-26T01:43:10.878Z,101570.39
2017-09-26T01:45:38.503Z,101564.22
2017-09-26T01:48:06.087Z,101573.81
2017-09-26T01:50:34.627Z,101571.23
2017-09-26T01:53:02.288Z,101574.61
2017-09-26T01:55:29.910Z,101573.53
2017-09-26T01:57:57.491Z,101570.56
2017-09-26T02:00:25.106Z,101571.10
2017-09-26T02:02:52.709Z,101569.77
2017-09-26T02:05:20.349Z,101568.41
2017-09-26T02:07:47.946Z,101566.36
2017-09-26T02:10:15.571Z,101569.05
2017-09-26T02:12:43.164Z,101571.63
2017-09-26T02:15:10.802Z,101570.02
2017-09-26T02:17:38.403Z,101568.13
2017-09-26T02:20:06.054Z,101561.27
2017-09-26T02:22:33.645Z,101563.41
2017-09-26T02:25:01.266Z,101566.77
2017-09-26T02:27:28.854Z,101564.77
2017-09-26T02:29:56.506Z,101564.89
2017-09-26T02:32:24.095Z,101561.08
2017-09-26T02:34:51.781Z,101566.61
2017-09-26T02:37:19.368Z,101565.54
2017-09-26T02:39:46.982Z,101564.73
2017-09-26T02:42:14.602Z,101563.66
2017-09-26T02:44:42.227Z,101561.34
2017-09-26T02:47:09.810Z,101568.09
2017-09-26T02:49:37.432Z,101563.75
2017-09-26T02:52:05.050Z,101562.67
2017-09-26T02:54:32.661Z,101563.77
2017-09-26T02:57:00.285Z,101563.92
2017-09-26T02:59:27.905Z,101560.98
2017-09-26T03:01:55.569Z,101566.49
2017-09-26T03:04:23.151Z,101558.42
2017-09-26T03:06:50.767Z,101565.84
2017-09-26T03:09:18.352Z,101568.16
2017-09-26T03:11:45.966Z,101569.49
2017-09-26T03:14:13.563Z,101573.95
2017-09-26T03:16:41.198Z,101572.34
2017-09-26T03:19:08.791Z,101571.94
2017-09-26T03:21:36.556Z,101583.00
2017-09-26T03:24:04.148Z,101584.85
2017-09-26T03:26:31.778Z,101588.37
2017-09-26T03:28:59.373Z,101584.05
2017-09-26T03:31:27.043Z,101585.53
2017-09-26T03:33:54.631Z,101580.80
2017-09-26T03:36:22.250Z,101584.58
2017-09-26T03:38:49.841Z,101581.52
2017-09-26T03:41:17.466Z,101586.77
2017-09-26T03:43:45.066Z,101580.16
2017-09-26T03:46:12.669Z,101585.01
2017-09-26T03:48:40.300Z,101587.44
2017-09-26T03:51:07.896Z,101584.01
2017-09-26T03:53:35.527Z,101583.83
2017-09-26T03:56:03.124Z,101577.73
2017-09-26T03:58:30.736Z,101583.39
2017-09-26T04:00:58.416Z,101582.02
2017-09-26T04:03:26.031Z,101584.04
2017-09-26T04:05:53.633Z,101582.02
2017-09-26T04:08:22.083Z,101590.28
2017-09-26T04:10:49.702Z,101587.05
2017-09-26T04:13:17.459Z,101585.87
2017-09-26T04:15:45.057Z,101583.84
2017-09-26T04:18:12.691Z,101585.73
2017-09-26T04:20:40.292Z,101589.77
2017-09-26T04:23:07.984Z,101588.83
2017-09-26T04:25:35.916Z,101588.98
2017-09-26T04:28:03.543Z,101586.30
2017-09-26T04:30:31.150Z,101586.69
2017-09-26T04:32:58.760Z,101587.67
2017-09-26T04:35:26.455Z,101586.86
2017-09-26T04:37:54.060Z,101580.56
2017-09-26T04:40:21.709Z,101582.32
2017-09-26T04:42:49.326Z,101591.91
2017-09-26T04:45:16.947Z,101588.64
2017-09-26T04:47:44.534Z,101591.45
2017-09-26T04:50:12.135Z,101591.31
2017-09-26T04:52:39.734Z,101593.86
2017-09-26T04:55:07.363Z,101587.67
2017-09-26T04:57:35.028Z,101583.76
2017-09-26T05:00:02.651Z,101581.17
2017-09-26T05:02:30.305Z,101579.98
2017-09-26T05:04:58.029Z,101587.95
2017-09-26T05:07:25.638Z,101593.76
2017-09-26T05:09:53.255Z,101593.34
2017-09-26T05:12:20.863Z,101597.25
2017-09-26T05:14:48.609Z,101592.27
2017-09-26T05:17:16.350Z,101594.40
2017-09-26T05:19:44.043Z,101589.56
2017-09-26T05:22:11.802Z,101590.38
2017-09-26T05:24:39.679Z,101596.43
2017-09-26T05:27:08.489Z,101600.22
2017-09-26T05:29:36.155Z,101605.08
2017-09-26T05:32:03.783Z,101597.50
2017-09-26T05:34:31.437Z,101604.66
2017-09-26T05:36:59.050Z,101610.86
2017-09-26T05:39:26.675Z,101607.36
2017-09-26T05:41:54.279Z,101608.72
2017-09-26T05:44:21.919Z,101608.59
2017-09-26T05:46:49.521Z,101610.07
2017-09-26T05:49:17.156Z,101619.09
2017-09-26T05:51:44.763Z,101619.09
2017-09-26T05:54:12.430Z,101622.32
2017-09-26T05:56:40.024Z,101621.88
2017-09-26T05:59:07.654Z,101621.11
2017-09-26T06:01:35.284Z,101620.83
2017-09-26T06:04:02.942Z,101625.41
2017-09-26T06:06:30.554Z,101623.28
2017-09-26T06:08:58.216Z,101626.13
2017-09-26T06:11:26.061Z,101625.48
2017-09-26T06:13:53.990Z,101628.44
2017-09-26T06:16:21.841Z,101626.44
2017-09-26T06:18:49.804Z,101638.30
2017-09-26T06:21:18.699Z,101632.77
2017-09-26T06:23:46.667Z,101639.50
2017-09-26T06:26:14.441Z,101635.81
2017-09-26T06:28:42.228Z,101634.88
2017-09-26T06:31:10.200Z,101639.22
2017-09-26T06:33:38.233Z,101640.34
2017-09-26T06:36:06.816Z,101642.41
2017-09-26T06:38:34.618Z,101646.06
2017-09-26T06:41:02.652Z,101644.03
2017-09-26T06:43:30.518Z,101645.39
2017-09-26T06:45:58.584Z,101650.64
2017-09-26T06:48:26.535Z,101652.41
2017-09-26T06:50:54.129Z,101650.37
2017-09-26T06:53:21.775Z,101651.59
2017-09-26T06:55:49.374Z,101654.99
2017-09-26T06:58:17.121Z,101659.20
2017-09-26T07:00:44.715Z,101659.17
2017-09-26T07:03:12.462Z,101662.98
2017-09-26T07:05:40.119Z,101657.97
2017-09-26T07:08:07.731Z,101663.11
2017-09-26T07:10:35.379Z,101658.14
2017-09-26T07:13:03.000Z,101661.49
2017-09-26T07:15:30.645Z,101666.23
2017-09-26T07:17:58.341Z,101662.45
2017-09-26T07:20:25.971Z,101661.92
2017-09-26T07:22:53.570Z,101661.94
2017-09-26T07:25:21.207Z,101663.31
2017-09-26T07:27:48.812Z,101666.02
2017-09-26T07:30:16.478Z,101660.87
2017-09-26T07:32:44.096Z,101666.15
2017-09-26T07:35:11.725Z,101666.44
2017-09-26T07:37:39.323Z,101658.86
2017-09-26T07:40:06.950Z,101655.89
2017-09-26T07:42:34.584Z,101655.21
2017-09-26T07:45:02.229Z,101660.61
2017-09-26T07:47:29.831Z,101659.83
2017-09-26T07:49:57.450Z,101659.55
2017-09-26T07:52:25.048Z,101660.21
2017-09-26T07:54:52.690Z,101661.56
2017-09-26T07:57:20.300Z,101662.11
2017-09-26T07:59:47.998Z,101665.99
2017-09-26T08:02:15.907Z,101658.02
2017-09-26T08:04:43.891Z,101669.48
2017-09-26T08:07:11.835Z,101669.20
2017-09-26T08:09:39.949Z,101669.76
2017-09-26T08:12:07.547Z,101667.05
2017-09-26T08:14:35.158Z,101667.70
2017-09-26T08:17:02.799Z,101667.28
2017-09-26T08:19:30.402Z,101669.42
2017-09-26T08:21:58.042Z,101667.27
2017-09-26T08:24:25.762Z,101668.33
2017-09-26T08:26:53.382Z,101659.52
2017-09-26T08:29:20.990Z,101664.27
2017-09-26T08:31:48.723Z,101663.29
2017-09-26T08:34:16.397Z,101664.08
2017-09-26T08:36:44.055Z,101667.59
2017-09-26T08:39:11.658Z,101662.70
2017-09-26T08:41:39.434Z,101668.11
2017-09-26T08:44:07.051Z,101671.61
2017-09-26T08:46:34.742Z,101667.40
2017-09-26T08:49:02.391Z,101673.44
2017-09-26T08:51:29.992Z,101673.14
2017-09-26T08:53:57.636Z,101675.28
2017-09-26T08:56:25.287Z,101672.00
2017-09-26T08:58:52.914Z,101672.08
2017-09-26T09:01:20.566Z,101675.28
2017-09-26T09:03:48.196Z,101671.84
2017-09-26T09:06:15.817Z,101673.17
2017-09-26T09:08:43.454Z,101671.07
2017-09-26T09:11:11.062Z,101659.05
2017-09-26T09:13:38.695Z,101656.13
2017-09-26T09:16:06.382Z,101661.55
2017-09-26T09:18:34.041Z,101662.16
2017-09-26T09:21:01.630Z,101656.44
2017-09-26T09:23:29.278Z,101661.92
2017-09-26T09:25:56.893Z,101664.41
2017-09-26T09:28:24.642Z,101670.80
2017-09-26T09:30:52.239Z,101664.55
2017-09-26T09:33:19.883Z,101666.31
2017-09-26T09:35:47.495Z,101663.17
2017-09-26T09:38:15.160Z,101668.06
2017-09-26T09:40:42.774Z,101668.50
2017-09-26T09:43:10.412Z,101663.16
2017-09-26T09:45:38.006Z,101669.27
2017-09-26T09:48:05.632Z,101669.86
2017-09-26T09:50:33.261Z,101666.27
2017-09-26T09:53:00.883Z,101672.74
2017-09-26T09:55:28.503Z,101673.87
2017-09-26T09:57:56.175Z,101675.41
2017-09-26T10:00:23.774Z,101675.45
2017-09-26T10:02:51.403Z,101678.47
2017-09-26T10:05:19.018Z,101678.74
2017-09-26T10:07:46.658Z,101683.25
2017-09-26T10:10:14.323Z,101678.06
2017-09-26T10:12:41.970Z,101681.11
2017-09-26T10:15:09.591Z,101677.66
2017-09-26T10:17:37.223Z,101675.41
2017-09-26T10:20:04.826Z,101678.59
2017-09-26T10:22:32.469Z,101677.80
2017-09-26T10:25:00.077Z,101674.92
2017-09-26T10:27:27.723Z,101678.70
2017-09-26T10:29:55.329Z,101673.08
2017-09-26T10:32:22.920Z,101667.95
2017-09-26T10:34:50.554Z,101665.98
2017-09-26T10:37:18.161Z,101676.48
2017-09-26T10:39:45.786Z,101680.36
2017-09-26T10:42:13.396Z,101683.23
2017-09-26T10:44:41.024Z,101676.95
2017-09-26T10:47:08.619Z,101675.31
2017-09-26T10:49:36.294Z,101680.53
2017-09-26T10:52:03.882Z,101678.02
2017-09-26T10:54:31.511Z,101683.45
2017-09-26T10:56:59.122Z,101680.42
2017-09-26T10:59:26.738Z,101678.05
2017-09-26T11:01:54.327Z,101678.36
2017-09-26T11:04:21.964Z,101683.75
2017-09-26T11:06:49.554Z,101677.94
2017-09-26T11:09:17.170Z,101676.12
2017-09-26T11:11:44.774Z,101678.20
2017-09-26T11:14:12.401Z,101675.94
2017-09-26T11:16:40.002Z,101685.56
2017-09-26T11:19:07.622Z,101680.84
2017-09-26T11:21:35.240Z,101683.79
2017-09-26T11:24:02.851Z,101681.75
2017-09-26T11:26:30.498Z,101677.64
2017-09-26T11:28:58.146Z,101681.88
2017-09-26T11:31:25.788Z,101683.88
2017-09-26T11:33:53.402Z,101681.31
2017-09-26T11:36:21.016Z,101677.57
2017-09-26T11:38:48.647Z,101685.13
2017-09-26T11:41:16.289Z,101682.52
2017-09-26T11:43:43.894Z,101678.28
2017-09-26T11:46:11.521Z,101681.27
2017-09-26T11:48:39.128Z,101672.28
2017-09-26T11:51:06.781Z,101676.36
2017-09-26T11:53:34.375Z,101669.01
2017-09-26T11:56:02.001Z,101672.43
2017-09-26T11:58:29.668Z,101664.80
2017-09-26T12:00:57.307Z,101670.56
2017-09-26T12:03:24.910Z,101664.66
2017-09-26T12:05:52.533Z,101655.13
2017-09-26T12:08:20.151Z,101662.48
2017-09-26T12:10:47.863Z,101659.03
2017-09-26T12:13:21.077Z,101662.81
2017-09-26T12:15:48.707Z,101662.07
2017-09-26T12:18:16.290Z,101660.42
2017-09-26T12:20:43.949Z,101659.75
2017-09-26T12:23:11.557Z,101658.91
2017-09-26T12:25:39.214Z,101664.39
2017-09-26T12:28:06.808Z,101661.19
2017-09-26T12:30:34.416Z,101659.98
2017-09-26T12:33:02.035Z,101663.82
2017-09-26T12:35:29.662Z,101665.83
2017-09-26T12:37:57.267Z,101658.53
2017-09-26T12:40:24.891Z,101656.80
2017-09-26T12:42:52.498Z,101660.87
2017-09-26T12:45:20.103Z,101657.52
2017-09-26T12:47:47.735Z,101664.44
2017-09-26T12:50:15.358Z,101659.30
2017-09-26T12:52:43.018Z,101664.23
2017-09-26T12:55:10.631Z,101662.88
2017-09-26T12:57:38.264Z,101659.29
2017-09-26T13:00:05.859Z,101660.53
2017-09-26T13:02:33.494Z,101659.48
2017-09-26T13:05:01.246Z,101656.80
2017-09-26T13:07:28.886Z,101650.48
2017-09-26T13:09:56.506Z,101649.28
2017-09-26T13:12:24.158Z,101645.13
2017-09-26T13:14:51.772Z,101644.30
2017-09-26T13:17:19.400Z,101643.36
2017-09-26T13:19:46.998Z,101640.85
2017-09-26T13:22:14.646Z,101651.02
2017-09-26T13:24:42.253Z,101646.05
2017-09-26T13:27:09.859Z,101647.62
2017-09-26T13:29:37.492Z,101654.52
2017-09-26T13:32:05.098Z,101653.91
2017-09-26T13:34:32.778Z,101649.41
2017-09-26T13:37:00.374Z,101650.39
2017-09-26T13:39:27.998Z,101649.97
2017-09-26T13:41:55.603Z,101649.27
2017-09-26T13:44:23.247Z,101658.45
2017-09-26T13:46:50.874Z,101649.89
2017-09-26T13:49:18.522Z,101647.73
2017-09-26T13:51:46.167Z,101645.45
2017-09-26T13:54:13.823Z,101640.14
2017-09-26T13:56:41.426Z,101637.12
2017-09-26T13:59:09.054Z,101638.38
2017-09-26T14:01:36.665Z,101637.12
2017-09-26T14:04:04.392Z,101636.87
2017-09-26T14:06:32.008Z,101638.53
2017-09-26T14:08:59.628Z,101642.42
2017-09-26T14:11:27.337Z,101645.50
2017-09-26T14:13:55.004Z,101640.56
2017-09-26T14:16:22.556Z,101643.95
2017-09-26T14:18:50.154Z,101650.73
2017-09-26T14:21:17.808Z,101647.97
2017-09-26T14:23:45.453Z,101645.67
2017-09-26T14:26:13.071Z,101653.08
2017-09-26T14:28:40.674Z,101653.72
2017-09-26T14:31:08.342Z,101639.35
2017-09-26T14:33:35.956Z,101643.52
2017-09-26T14:36:03.575Z,101643.79
2017-09-26T14:38:31.199Z,101634.56
2017-09-26T14:40:58.921Z,101634.81
2017-09-26T14:43:26.540Z,101625.55
2017-09-26T14:45:54.190Z,101635.88
2017-09-26T14:48:21.860Z,101630.03
2017-09-26T14:50:49.470Z,101640.34
2017-09-26T14:53:17.073Z,101642.27
2017-09-26T14:55:44.704Z,101643.82
2017-09-26T14:58:12.314Z,101637.30
2017-09-26T15:00:39.994Z,101638.11
2017-09-26T15:03:08.028Z,101647.98
2017-09-26T15:05:35.625Z,101646.73
2017-09-26T15:08:03.386Z,101646.80
2017-09-26T15:10:31.086Z,101651.11
2017-09-26T15:12:58.702Z,101656.86
2017-09-26T15:15:26.310Z,101664.39
2017-09-26T15:17:53.958Z,101664.60
2017-09-26T15:20:21.572Z,101668.19
2017-09-26T15:22:49.205Z,101675.66
2017-09-26T15:25:16.815Z,101676.06
2017-09-26T15:27:44.441Z,101675.59
2017-09-26T15:30:12.070Z,101683.64
2017-09-26T15:32:39.682Z,101685.79
2017-09-26T15:35:07.303Z,101680.11
2017-09-26T15:37:34.947Z,101682.64
2017-09-26T15:40:02.594Z,101684.53
2017-09-26T15:42:30.187Z,101678.77
2017-09-26T15:44:57.813Z,101683.11
2017-09-26T15:47:25.411Z,101680.30
2017-09-26T15:49:53.039Z,101681.72
2017-09-26T15:52:20.662Z,101679.03
2017-09-26T15:54:48.314Z,101685.39
2017-09-26T15:57:15.927Z,101673.53
2017-09-26T15:59:43.521Z,101679.69
2017-09-26T16:02:11.143Z,101674.43
2017-09-26T16:04:38.740Z,101681.86
2017-09-26T16:07:06.430Z,101678.74
2017-09-26T16:09:34.031Z,101680.13
2017-09-26T16:12:01.677Z,101674.50
2017-09-26T16:14:29.323Z,101675.76
2017-09-26T16:16:57.108Z,101673.67
2017-09-26T16:19:24.718Z,101684.79
2017-09-26T16:21:52.348Z,101678.30
2017-09-26T16:24:20.011Z,101679.36
2017-09-26T16:26:47.660Z,101685.78
2017-09-26T16:29:15.287Z,101681.69
2017-09-26T16:31:42.879Z,101678.87
2017-09-26T16:34:10.507Z,101673.19
2017-09-26T16:36:38.096Z,101679.37
2017-09-26T16:39:05.734Z,101675.88
2017-09-26T16:41:33.355Z,101678.02
2017-09-26T16:44:00.952Z,101678.06
2017-09-26T16:46:28.635Z,101683.04
2017-09-26T16:48:56.230Z,101684.37
2017-09-26T16:51:23.864Z,101678.37
2017-09-26T16:53:51.513Z,101686.25
2017-09-26T16:56:19.156Z,101684.09
2017-09-26T16:58:46.814Z,101689.84
2017-09-26T17:01:14.441Z,101692.02
2017-09-26T17:03:42.035Z,101705.71
2017-09-26T17:06:09.666Z,101698.03
2017-09-26T17:08:37.363Z,101700.20
2017-09-26T17:11:04.983Z,101704.30
2017-09-26T17:13:32.578Z,101706.81
2017-09-26T17:16:00.262Z,101709.58
2017-09-26T17:18:27.881Z,101716.34
2017-09-26T17:20:55.519Z,101716.76
2017-09-26T17:23:23.127Z,101720.95
2017-09-26T17:25:50.827Z,101718.95
2017-09-26T17:28:18.971Z,101722.81
2017-09-26T17:30:46.624Z,101716.90
2017-09-26T17:33:14.235Z,101724.94
2017-09-26T17:35:41.945Z,101729.86
2017-09-26T17:38:09.616Z,101734.04
2017-09-26T17:40:37.322Z,101739.60
2017-09-26T17:43:04.931Z,101735.52
2017-09-26T17:45:32.569Z,101749.09
2017-09-26T17:48:00.263Z,101751.94
2017-09-26T17:50:27.854Z,101752.63
2017-09-26T17:52:55.519Z,101757.42
2017-09-26T17:55:23.175Z,101758.98
2017-09-26T17:57:50.818Z,101762.83
2017-09-26T18:00:18.537Z,101763.11
2017-09-26T18:02:46.183Z,101766.41
2017-09-26T18:05:13.787Z,101773.34
2017-09-26T18:07:41.452Z,101770.09
2017-09-26T18:10:09.071Z,101766.86
2017-09-26T18:12:36.713Z,101764.25
2017-09-26T18:15:04.342Z,101770.58
2017-09-26T18:17:32.734Z,101775.80
2017-09-26T18:20:00.688Z,101773.94
2017-09-26T18:22:28.355Z,101771.89
2017-09-26T18:24:55.946Z,101776.45
2017-09-26T18:27:23.601Z,101782.55
2017-09-26T18:29:51.212Z,101785.30
2017-09-26T18:32:18.867Z,101786.66
2017-09-26T18:34:46.463Z,101786.94
2017-09-26T18:37:14.088Z,101787.73
2017-09-26T18:39:41.764Z,101787.22
2017-09-26T18:42:09.455Z,101788.98
2017-09-26T18:44:37.598Z,101795.48
2017-09-26T18:47:05.963Z,101788.59
2017-09-26T18:49:33.766Z,101795.36
2017-09-26T18:52:01.494Z,101794.80
2017-09-26T18:54:29.231Z,101800.88
2017-09-26T18:56:56.858Z,101797.91
2017-09-26T18:59:25.267Z,101800.34
2017-09-26T19:01:52.929Z,101803.06
2017-09-26T19:04:20.631Z,101809.42
2017-09-26T19:06:49.485Z,101814.69
2017-09-26T19:09:17.139Z,101816.98
2017-09-26T19:11:47.870Z,101813.19
2017-09-26T19:14:16.552Z,101818.08
2017-09-26T19:16:45.242Z,101809.83
2017-09-26T19:19:13.722Z,101813.06
2017-09-26T19:21:41.318Z,101807.80
2017-09-26T19:24:08.951Z,101813.18
2017-09-26T19:26:36.585Z,101815.50
2017-09-26T19:29:04.220Z,101815.50
2017-09-26T19:31:31.825Z,101809.82
2017-09-26T19:33:59.615Z,101804.13
2017-09-26T19:36:27.239Z,101809.92
2017-09-26T19:38:54.898Z,101806.14
2017-09-26T19:41:22.505Z,101808.47
2017-09-26T19:43:50.255Z,101810.34
2017-09-26T19:46:17.888Z,101806.84
2017-09-26T19:48:45.587Z,101809.95
2017-09-26T19:51:13.189Z,101808.74
2017-09-26T19:53:40.830Z,101804.41
2017-09-26T19:56:08.518Z,101796.16
2017-09-26T19:58:36.167Z,101796.42
2017-09-26T20:01:03.766Z,101796.84
2017-09-26T20:03:31.442Z,101796.83
2017-09-26T20:05:59.151Z,101798.05
2017-09-26T20:08:26.954Z,101796.02
2017-09-26T20:10:54.573Z,101797.64
2017-09-26T20:13:22.947Z,101797.13
2017-09-26T20:15:50.602Z,101796.42
2017-09-26T20:18:18.427Z,101800.34
2017-09-26T20:20:46.691Z,101802.80
2017-09-26T20:23:14.343Z,101799.54
2017-09-26T20:25:42.119Z,101800.74
2017-09-26T20:28:11.157Z,101801.15
2017-09-26T20:30:38.776Z,101803.33
2017-09-26T20:33:09.397Z,101809.66
2017-09-26T20:35:36.983Z,101803.05
2017-09-26T20:38:04.642Z,101803.33
2017-09-26T20:40:32.278Z,101806.56
2017-09-26T20:42:59.926Z,101808.03
2017-09-26T20:45:28.403Z,101805.86
2017-09-26T20:47:56.055Z,101809.59
2017-09-26T20:50:23.659Z,101809.84
2017-09-26T20:52:52.011Z,101812.67
2017-09-26T20:55:19.642Z,101806.17
2017-09-26T20:57:47.388Z,101803.86
2017-09-26T21:00:15.043Z,101806.52
2017-09-26T21:02:42.655Z,101806.13
2017-09-26T21:05:10.337Z,101806.95
2017-09-26T21:07:37.950Z,101806.94
2017-09-26T21:10:09.021Z,101806.51
2017-09-26T21:12:36.624Z,101801.92
2017-09-26T21:15:04.267Z,101811.38
2017-09-26T21:17:31.904Z,101808.66
2017-09-26T21:19:59.532Z,101797.22
2017-09-26T21:22:27.175Z,101803.82
2017-09-26T21:24:54.852Z,101807.45
2017-09-26T21:27:22.459Z,101808.45
2017-09-26T21:29:50.094Z,101808.47
2017-09-26T21:32:17.866Z,101806.06
2017-09-26T21:34:45.467Z,101811.36
2017-09-26T21:37:13.819Z,101805.27
2017-09-26T21:39:41.411Z,101809.77
2017-09-26T21:42:09.056Z,101807.35
2017-09-26T21:44:36.653Z,101812.23
2017-09-26T21:47:04.263Z,101819.90
2017-09-26T21:49:31.858Z,101807.72
2017-09-26T21:51:59.505Z,101809.61
2017-09-26T21:54:27.101Z,101810.00
2017-09-26T21:56:54.725Z,101804.16
2017-09-26T21:59:22.369Z,101809.95
2017-09-26T22:01:50.015Z,101810.05
2017-09-26T22:04:17.603Z,101805.63
2017-09-26T22:06:45.223Z,101808.30
2017-09-26T22:09:12.852Z,101814.78
2017-09-26T22:11:40.522Z,101811.55
2017-09-26T22:14:08.120Z,101811.80
2017-09-26T22:16:35.726Z,101808.20
2017-09-26T22:19:03.383Z,101804.14
2017-09-26T22:21:31.192Z,101805.15
2017-09-26T22:23:58.788Z,101801.56
2017-09-26T22:26:26.440Z,101804.03
2017-09-26T22:28:54.038Z,101802.75
2017-09-26T22:31:21.707Z,101804.50
2017-09-26T22:33:49.303Z,101809.55
2017-09-26T22:36:16.897Z,101797.28
2017-09-26T22:38:44.519Z,101801.20
2017-09-26T22:41:12.112Z,101802.56
2017-09-26T22:43:39.741Z,101800.52
2017-09-26T22:46:07.336Z,101793.35
2017-09-26T22:48:34.950Z,101791.45
2017-09-26T22:51:02.624Z,101789.42
2017-09-26T22:53:30.254Z,101794.45
2017-09-26T22:55:57.875Z,101784.50
2017-09-26T22:58:25.670Z,101788.80
2017-09-26T23:00:53.271Z,101792.44
2017-09-26T23:03:20.918Z,101791.10
2017-09-26T23:05:48.818Z,101784.34
2017-09-26T23:08:18.116Z,101781.11
2017-09-26T23:10:46.621Z,101776.95
2017-09-26T23:13:14.234Z,101779.52
2017-09-26T23:15:41.859Z,101782.37
2017-09-26T23:18:09.610Z,101776.67
2017-09-26T23:20:37.233Z,101773.46
2017-09-26T23:23:04.818Z,101774.81
2017-09-26T23:25:32.448Z,101770.66
2017-09-26T23:28:00.030Z,101776.29
2017-09-26T23:30:27.662Z,101773.20
2017-09-26T23:32:55.278Z,101776.44
2017-09-26T23:35:22.918Z,101774.52
2017-09-26T23:37:50.516Z,101782.98
2017-09-26T23:40:18.114Z,101779.03
2017-09-26T23:42:45.755Z,101781.89
2017-09-26T23:45:13.505Z,101775.47
2017-09-26T23:47:41.105Z,101779.95
2017-09-26T23:50:08.702Z,101778.34
2017-09-26T23:52:36.331Z,101778.49
2017-09-26T23:55:03.918Z,101776.52
2017-09-26T23:57:31.605Z,101782.54
2017-09-26T23:59:59.210Z,101782.87
